createdAt,value
2023-02-14T00:00:41.559Z,99736.03
2023-02-14T00:01:46.274Z,99743.69
2023-02-14T00:02:50.180Z,99730.38
2023-02-14T00:03:53.381Z,99739.25
2023-02-14T00:04:56.630Z,99732.81
2023-02-14T00:06:13.044Z,99728.09
2023-02-14T00:07:16.307Z,99732.03
2023-02-14T00:08:19.589Z,99741.44
2023-02-14T00:09:23.301Z,99741.41
2023-02-14T00:10:26.608Z,99736.75
2023-02-14T00:11:30.303Z,99731.31
2023-02-14T00:12:33.380Z,99729.06
2023-02-14T00:13:36.840Z,99739.66
2023-02-14T00:14:58.299Z,99737.69
2023-02-14T00:16:01.458Z,99741.63
2023-02-14T00:17:05.023Z,99733.47
2023-02-14T00:18:08.271Z,99735.75
2023-02-14T00:19:16.221Z,99733.28
2023-02-14T00:20:19.599Z,99734.00
2023-02-14T00:21:22.623Z,99742.91
2023-02-14T00:22:25.909Z,99740.44
2023-02-14T00:23:29.385Z,99737.72
2023-02-14T00:24:32.696Z,99734.25
2023-02-14T00:25:36.233Z,99735.78
2023-02-14T00:26:39.945Z,99734.75
2023-02-14T00:27:43.196Z,99738.69
2023-02-14T00:28:46.639Z,99741.44
2023-02-14T00:29:49.888Z,99729.31
2023-02-14T00:30:53.100Z,99730.03
2023-02-14T00:31:56.438Z,99721.91
2023-02-14T00:32:59.800Z,99728.34
2023-02-14T00:34:03.688Z,99723.88
2023-02-14T00:35:08.086Z,99722.16
2023-02-14T00:36:12.384Z,99720.63
2023-02-14T00:37:15.416Z,99726.06
2023-02-14T00:38:18.550Z,99723.31
2023-02-14T00:39:21.753Z,99725.75
2023-02-14T00:40:25.062Z,99724.03
2023-02-14T00:41:28.068Z,99722.56
2023-02-14T00:42:31.189Z,99710.72
2023-02-14T00:43:34.471Z,99719.09
2023-02-14T00:44:38.369Z,99720.88
2023-02-14T00:45:41.657Z,99721.59
2023-02-14T00:46:44.901Z,99730.28
2023-02-14T00:47:48.109Z,99735.00
2023-02-14T00:48:52.332Z,99733.81
2023-02-14T00:49:55.560Z,99738.22
2023-02-14T00:50:59.278Z,99735.78
2023-02-14T00:52:02.518Z,99731.81
2023-02-14T00:53:05.632Z,99737.50
2023-02-14T00:54:08.684Z,99735.50
2023-02-14T00:55:11.783Z,99730.59
2023-02-14T00:56:15.949Z,99731.84
2023-02-14T00:57:18.942Z,99730.12
2023-02-14T00:58:22.098Z,99730.38
2023-02-14T00:59:25.433Z,99727.16
2023-02-14T01:00:28.706Z,99738.25
2023-02-14T01:01:32.047Z,99733.56
2023-02-14T01:02:35.286Z,99727.66
2023-02-14T01:03:38.826Z,99735.31
2023-02-14T01:04:42.135Z,99731.59
2023-02-14T01:05:45.690Z,99731.59
2023-02-14T01:06:48.818Z,99727.41
2023-02-14T01:07:52.360Z,99730.62
2023-02-14T01:08:55.359Z,99726.16
2023-02-14T01:09:58.544Z,99717.78
2023-02-14T01:11:20.121Z,99726.87
2023-02-14T01:12:23.362Z,99727.19
2023-02-14T01:13:26.460Z,99719.78
2023-02-14T01:14:29.474Z,99717.78
2023-02-14T01:15:33.227Z,99718.28
2023-02-14T01:16:38.851Z,99719.25
2023-02-14T01:17:41.995Z,99721.22
2023-02-14T01:18:46.314Z,99721.72
2023-02-14T01:19:52.991Z,99717.00
2023-02-14T01:20:56.030Z,99708.12
2023-02-14T01:21:59.405Z,99709.38
2023-02-14T01:23:02.695Z,99711.59
2023-02-14T01:24:08.018Z,99717.25
2023-02-14T01:25:11.044Z,99708.34
2023-02-14T01:26:15.058Z,99709.38
2023-02-14T01:27:18.654Z,99707.41
2023-02-14T01:28:21.698Z,99705.66
2023-02-14T01:29:25.606Z,99702.41
2023-02-14T01:30:29.044Z,99703.66
2023-02-14T01:31:34.933Z,99708.84
2023-02-14T01:32:38.095Z,99700.47
2023-02-14T01:33:42.630Z,99697.00
2023-02-14T01:34:45.840Z,99691.31
2023-02-14T01:35:49.189Z,99694.81
2023-02-14T01:36:52.373Z,99686.41
2023-02-14T01:37:55.544Z,99687.87
2023-02-14T01:39:02.612Z,99698.97
2023-02-14T01:40:08.952Z,99694.78
2023-02-14T01:41:13.020Z,99693.28
2023-02-14T01:42:16.224Z,99684.94
2023-02-14T01:43:19.468Z,99687.66
2023-02-14T01:44:37.754Z,99691.13
2023-02-14T01:45:41.207Z,99690.84
2023-02-14T01:46:45.886Z,99690.63
2023-02-14T01:47:56.869Z,99688.41
2023-02-14T01:49:06.321Z,99684.44
2023-02-14T01:50:14.555Z,99686.44
2023-02-14T01:51:20.312Z,99682.97
2023-02-14T01:52:29.269Z,99701.97
2023-02-14T01:53:32.350Z,99685.69
2023-02-14T01:54:40.554Z,99693.34
2023-02-14T01:55:49.805Z,99692.84
2023-02-14T01:57:00.167Z,99691.84
2023-02-14T01:58:09.707Z,99697.28
2023-02-14T01:59:20.187Z,99690.09
2023-02-14T02:00:42.310Z,99692.84
2023-02-14T02:01:50.288Z,99700.97
2023-02-14T02:02:53.790Z,99691.09
2023-02-14T02:04:01.581Z,99687.16
2023-02-14T02:05:04.786Z,99689.63
2023-02-14T02:06:18.864Z,99684.94
2023-02-14T02:07:26.487Z,99683.69
2023-02-14T02:08:29.787Z,99682.47
2023-02-14T02:09:57.050Z,99680.69
2023-02-14T02:11:00.451Z,99683.69
2023-02-14T02:12:04.164Z,99678.97
2023-02-14T02:13:09.244Z,99681.66
2023-02-14T02:14:18.367Z,99682.94
2023-02-14T02:15:24.229Z,99684.91
2023-02-14T02:16:36.059Z,99686.41
2023-02-14T02:18:09.891Z,99682.44
2023-02-14T02:19:32.513Z,99677.00
2023-02-14T02:21:17.464Z,99670.31
2023-02-14T02:22:38.528Z,99664.88
2023-02-14T02:23:57.053Z,99663.91
2023-02-14T02:25:25.524Z,99655.75
2023-02-14T02:26:37.851Z,99660.44
2023-02-14T02:28:06.186Z,99659.47
2023-02-14T02:29:32.077Z,99659.22
2023-02-14T02:30:59.915Z,99657.97
2023-02-14T02:32:41.917Z,99658.72
2023-02-14T02:34:18.637Z,99660.19
2023-02-14T02:35:31.753Z,99659.94
2023-02-14T02:36:50.363Z,99662.34
2023-02-14T02:38:31.275Z,99654.72
2023-02-14T02:40:25.026Z,99659.63
2023-02-14T02:41:46.094Z,99660.34
2023-02-14T02:43:06.205Z,99663.78
2023-02-14T02:44:27.327Z,99665.00
2023-02-14T02:46:26.857Z,99661.03
2023-02-14T02:47:59.518Z,99673.81
2023-02-14T02:49:51.307Z,99663.72
2023-02-14T02:51:16.548Z,99651.13
2023-02-14T02:53:03.833Z,99658.72
2023-02-14T02:54:38.009Z,99661.19
2023-02-14T02:56:31.152Z,99662.66
2023-02-14T02:57:39.968Z,99660.69
2023-02-14T02:58:52.526Z,99660.41
2023-02-14T02:59:57.823Z,99651.50
2023-02-14T03:01:07.470Z,99652.50
2023-02-14T03:02:20.192Z,99656.69
2023-02-14T03:03:45.461Z,99655.94
2023-02-14T03:04:55.103Z,99653.72
2023-02-14T03:05:59.152Z,99653.25
2023-02-14T03:07:23.439Z,99653.00
2023-02-14T03:08:26.518Z,99653.94
2023-02-14T03:09:31.276Z,99653.69
2023-02-14T03:10:38.679Z,99651.44
2023-02-14T03:11:53.458Z,99650.91
2023-02-14T03:13:23.284Z,99654.34
2023-02-14T03:14:41.927Z,99657.81
2023-02-14T03:16:22.250Z,99642.09
2023-02-14T03:17:49.495Z,99653.84
2023-02-14T03:19:08.010Z,99650.72
2023-02-14T03:20:18.828Z,99657.56
2023-02-14T03:21:47.464Z,99647.94
2023-02-14T03:22:59.965Z,99645.69
2023-02-14T03:24:03.041Z,99649.09
2023-02-14T03:25:20.455Z,99643.69
2023-02-14T03:26:32.464Z,99648.84
2023-02-14T03:27:45.471Z,99643.47
2023-02-14T03:29:16.306Z,99640.81
2023-02-14T03:31:03.335Z,99648.25
2023-02-14T03:32:18.381Z,99651.44
2023-02-14T03:33:32.305Z,99646.94
2023-02-14T03:34:45.826Z,99645.41
2023-02-14T03:35:55.178Z,99651.34
2023-02-14T03:37:01.269Z,99649.16
2023-02-14T03:38:21.051Z,99652.09
2023-02-14T03:39:41.623Z,99646.62
2023-02-14T03:40:58.483Z,99651.78
2023-02-14T03:42:13.388Z,99644.47
2023-02-14T03:43:23.242Z,99646.19
2023-02-14T03:44:30.219Z,99641.78
2023-02-14T03:45:38.302Z,99641.09
2023-02-14T03:46:48.800Z,99649.03
2023-02-14T03:47:53.049Z,99648.50
2023-02-14T03:49:00.636Z,99648.75
2023-02-14T03:50:10.365Z,99647.72
2023-02-14T03:51:16.647Z,99649.47
2023-02-14T03:52:21.705Z,99652.94
2023-02-14T03:53:34.677Z,99648.78
2023-02-14T03:54:37.884Z,99655.69
2023-02-14T03:56:02.926Z,99654.44
2023-02-14T03:57:16.636Z,99653.41
2023-02-14T03:58:30.735Z,99654.16
2023-02-14T03:59:34.210Z,99650.19
2023-02-14T04:00:41.547Z,99657.06
2023-02-14T04:01:55.208Z,99652.47
2023-02-14T04:03:05.268Z,99653.69
2023-02-14T04:04:09.472Z,99646.31
2023-02-14T04:05:25.512Z,99647.03
2023-02-14T04:06:28.747Z,99638.16
2023-02-14T04:07:32.073Z,99644.66
2023-02-14T04:08:35.542Z,99638.03
2023-02-14T04:09:39.145Z,99642.19
2023-02-14T04:10:43.834Z,99647.56
2023-02-14T04:11:50.770Z,99645.41
2023-02-14T04:12:54.647Z,99644.16
2023-02-14T04:13:57.678Z,99647.19
2023-02-14T04:15:00.799Z,99646.19
2023-02-14T04:16:08.078Z,99650.13
2023-02-14T04:17:30.227Z,99645.47
2023-02-14T04:18:51.747Z,99642.53
2023-02-14T04:19:55.112Z,99642.25
2023-02-14T04:20:58.580Z,99636.66
2023-02-14T04:22:02.069Z,99639.59
2023-02-14T04:23:05.443Z,99635.69
2023-02-14T04:24:08.952Z,99635.41
2023-02-14T04:25:12.230Z,99632.94
2023-02-14T04:26:15.425Z,99639.56
2023-02-14T04:27:18.791Z,99632.44
2023-02-14T04:28:21.959Z,99638.13
2023-02-14T04:29:25.343Z,99635.13
2023-02-14T04:30:28.697Z,99629.97
2023-02-14T04:31:31.926Z,99633.69
2023-02-14T04:32:35.229Z,99632.44
2023-02-14T04:33:39.577Z,99634.19
2023-02-14T04:34:43.224Z,99636.72
2023-02-14T04:35:46.432Z,99643.84
2023-02-14T04:36:49.462Z,99634.75
2023-02-14T04:37:52.875Z,99640.91
2023-02-14T04:38:55.868Z,99642.37
2023-02-14T04:39:59.162Z,99642.63
2023-02-14T04:41:02.701Z,99641.41
2023-02-14T04:42:06.864Z,99642.37
2023-02-14T04:43:09.986Z,99645.84
2023-02-14T04:44:13.020Z,99649.78
2023-02-14T04:45:15.981Z,99651.50
2023-02-14T04:46:19.279Z,99648.78
2023-02-14T04:47:22.472Z,99652.28
2023-02-14T04:48:25.625Z,99645.09
2023-02-14T04:49:28.580Z,99648.00
2023-02-14T04:50:31.714Z,99642.37
2023-02-14T04:51:34.822Z,99647.03
2023-02-14T04:52:38.048Z,99648.75
2023-02-14T04:53:41.038Z,99641.84
2023-02-14T04:54:44.123Z,99643.31
2023-02-14T04:55:49.645Z,99644.06
2023-02-14T04:56:52.728Z,99642.28
2023-02-14T04:57:55.997Z,99645.53
2023-02-14T04:58:59.204Z,99642.09
2023-02-14T05:00:02.335Z,99645.72
2023-02-14T05:01:05.676Z,99637.41
2023-02-14T05:02:08.859Z,99644.31
2023-02-14T05:03:11.928Z,99637.16
2023-02-14T05:04:15.345Z,99635.94
2023-02-14T05:05:18.650Z,99634.44
2023-02-14T05:06:21.836Z,99635.44
2023-02-14T05:07:25.319Z,99626.06
2023-02-14T05:08:28.635Z,99636.63
2023-02-14T05:09:32.273Z,99629.72
2023-02-14T05:10:35.335Z,99635.41
2023-02-14T05:11:38.810Z,99640.09
2023-02-14T05:12:42.084Z,99643.75
2023-02-14T05:13:45.282Z,99640.78
2023-02-14T05:14:48.518Z,99641.56
2023-02-14T05:15:51.838Z,99637.34
2023-02-14T05:16:55.015Z,99643.00
2023-02-14T05:18:02.114Z,99642.78
2023-02-14T05:19:05.445Z,99641.25
2023-02-14T05:20:09.372Z,99641.50
2023-02-14T05:21:12.768Z,99639.53
2023-02-14T05:22:18.397Z,99642.25
2023-02-14T05:23:22.379Z,99641.28
2023-02-14T05:24:28.478Z,99633.66
2023-02-14T05:25:32.355Z,99644.28
2023-02-14T05:26:35.620Z,99646.28
2023-02-14T05:27:38.910Z,99643.06
2023-02-14T05:28:42.907Z,99643.56
2023-02-14T05:29:46.249Z,99643.31
2023-02-14T05:30:52.004Z,99638.38
2023-02-14T05:31:55.229Z,99636.19
2023-02-14T05:32:58.593Z,99648.72
2023-02-14T05:34:01.761Z,99640.59
2023-02-14T05:35:05.588Z,99643.06
2023-02-14T05:36:09.578Z,99643.56
2023-02-14T05:37:13.004Z,99642.84
2023-02-14T05:38:16.053Z,99642.13
2023-02-14T05:39:19.180Z,99642.34
2023-02-14T05:41:25.133Z,99648.47
2023-02-14T05:42:28.316Z,99647.72
2023-02-14T05:43:32.054Z,99641.03
2023-02-14T05:44:35.094Z,99645.19
2023-02-14T05:45:38.357Z,99651.84
2023-02-14T05:46:41.996Z,99649.84
2023-02-14T05:47:45.120Z,99653.03
2023-02-14T05:48:48.286Z,99650.59
2023-02-14T05:49:51.496Z,99647.09
2023-02-14T05:50:54.869Z,99650.66
2023-02-14T05:51:58.378Z,99651.37
2023-02-14T05:53:02.372Z,99655.34
2023-02-14T05:54:05.516Z,99651.66
2023-02-14T05:55:09.408Z,99650.59
2023-02-14T05:56:13.044Z,99654.06
2023-02-14T05:57:16.424Z,99652.06
2023-02-14T05:58:19.546Z,99657.19
2023-02-14T05:59:22.619Z,99656.75
2023-02-14T06:00:26.119Z,99650.84
2023-02-14T06:01:29.217Z,99655.03
2023-02-14T06:02:32.875Z,99653.13
2023-02-14T06:03:36.236Z,99647.94
2023-02-14T06:04:39.428Z,99658.06
2023-02-14T06:05:42.486Z,99654.12
2023-02-14T06:06:45.708Z,99657.13
2023-02-14T06:07:53.070Z,99661.31
2023-02-14T06:08:56.240Z,99651.97
2023-02-14T06:09:59.276Z,99659.34
2023-02-14T06:11:02.526Z,99656.88
2023-02-14T06:12:05.885Z,99658.13
2023-02-14T06:13:09.229Z,99649.78
2023-02-14T06:14:12.361Z,99658.13
2023-02-14T06:15:15.976Z,99655.69
2023-02-14T06:16:19.217Z,99660.09
2023-02-14T06:17:22.628Z,99669.94
2023-02-14T06:18:28.444Z,99664.03
2023-02-14T06:19:31.475Z,99653.91
2023-02-14T06:20:34.740Z,99658.59
2023-02-14T06:21:38.080Z,99664.97
2023-02-14T06:22:41.254Z,99666.44
2023-02-14T06:23:44.620Z,99671.34
2023-02-14T06:24:47.776Z,99671.56
2023-02-14T06:25:51.016Z,99676.00
2023-02-14T06:26:54.135Z,99675.28
2023-02-14T06:27:58.720Z,99675.00
2023-02-14T06:29:03.388Z,99673.28
2023-02-14T06:30:07.726Z,99674.75
2023-02-14T06:31:17.445Z,99672.75
2023-02-14T06:32:20.628Z,99681.09
2023-02-14T06:33:23.909Z,99681.41
2023-02-14T06:34:27.119Z,99679.66
2023-02-14T06:35:30.367Z,99689.50
2023-02-14T06:36:34.113Z,99684.12
2023-02-14T06:37:39.126Z,99691.00
2023-02-14T06:38:42.307Z,99696.63
2023-02-14T06:39:45.756Z,99693.44
2023-02-14T06:40:48.923Z,99697.91
2023-02-14T06:41:51.976Z,99700.38
2023-02-14T06:42:54.991Z,99690.53
2023-02-14T06:43:58.231Z,99699.66
2023-02-14T06:45:02.926Z,99698.25
2023-02-14T06:46:07.079Z,99701.44
2023-02-14T06:47:10.198Z,99706.41
2023-02-14T06:48:13.408Z,99703.97
2023-02-14T06:49:16.655Z,99700.03
2023-02-14T06:50:19.928Z,99710.59
2023-02-14T06:51:23.054Z,99706.41
2023-02-14T06:52:27.133Z,99706.47
2023-02-14T06:53:30.264Z,99707.19
2023-02-14T06:54:33.347Z,99711.94
2023-02-14T06:55:36.364Z,99702.50
2023-02-14T06:56:39.461Z,99709.41
2023-02-14T06:57:42.505Z,99706.00
2023-02-14T06:58:45.646Z,99711.63
2023-02-14T06:59:48.813Z,99704.94
2023-02-14T07:00:52.194Z,99708.91
2023-02-14T07:01:55.308Z,99705.28
2023-02-14T07:02:59.041Z,99708.47
2023-02-14T07:04:02.369Z,99703.31
2023-02-14T07:05:05.654Z,99709.44
2023-02-14T07:06:09.024Z,99714.69
2023-02-14T07:07:12.292Z,99705.81
2023-02-14T07:08:16.361Z,99708.53
2023-02-14T07:09:19.681Z,99704.13
2023-02-14T07:10:22.795Z,99713.22
2023-02-14T07:11:26.684Z,99708.06
2023-02-14T07:12:29.813Z,99709.81
2023-02-14T07:13:32.931Z,99705.09
2023-02-14T07:14:35.947Z,99703.66
2023-02-14T07:15:39.251Z,99698.47
2023-02-14T07:16:42.841Z,99709.09
2023-02-14T07:17:46.140Z,99709.13
2023-02-14T07:18:49.467Z,99718.50
2023-02-14T07:19:52.510Z,99710.34
2023-02-14T07:20:55.968Z,99712.34
2023-02-14T07:21:59.155Z,99710.13
2023-02-14T07:23:02.368Z,99702.72
2023-02-14T07:24:05.470Z,99703.22
2023-02-14T07:25:08.799Z,99713.06
2023-02-14T07:26:11.949Z,99710.87
2023-02-14T07:27:15.219Z,99715.06
2023-02-14T07:28:18.329Z,99709.88
2023-02-14T07:29:21.663Z,99712.34
2023-02-14T07:30:25.562Z,99711.63
2023-02-14T07:31:29.079Z,99714.09
2023-02-14T07:32:32.492Z,99720.75
2023-02-14T07:33:36.378Z,99727.19
2023-02-14T07:34:39.443Z,99718.78
2023-02-14T07:35:42.445Z,99723.22
2023-02-14T07:36:45.678Z,99723.00
2023-02-14T07:37:51.115Z,99727.19
2023-02-14T07:38:56.859Z,99730.62
2023-02-14T07:40:08.735Z,99729.66
2023-02-14T07:41:16.140Z,99726.94
2023-02-14T07:42:19.195Z,99732.84
2023-02-14T07:43:22.537Z,99730.38
2023-02-14T07:44:25.827Z,99737.28
2023-02-14T07:45:28.940Z,99731.34
2023-02-14T07:46:32.092Z,99736.25
2023-02-14T07:47:35.436Z,99729.59
2023-02-14T07:48:39.600Z,99728.09
2023-02-14T07:49:42.830Z,99729.34
2023-02-14T07:50:45.975Z,99735.25
2023-02-14T07:51:49.526Z,99740.19
2023-02-14T07:52:52.813Z,99742.87
2023-02-14T07:53:55.968Z,99732.50
2023-02-14T07:54:59.083Z,99737.94
2023-02-14T07:56:02.265Z,99742.16
2023-02-14T07:57:06.784Z,99741.87
2023-02-14T07:58:10.142Z,99748.53
2023-02-14T07:59:13.371Z,99750.00
2023-02-14T08:00:16.908Z,99745.78
2023-02-14T08:01:21.347Z,99744.31
2023-02-14T08:02:24.501Z,99737.62
2023-02-14T08:03:27.643Z,99744.53
2023-02-14T08:04:32.941Z,99738.06
2023-02-14T08:05:36.899Z,99740.78
2023-02-14T08:06:41.198Z,99737.31
2023-02-14T08:07:44.672Z,99729.06
2023-02-14T08:08:48.791Z,99732.06
2023-02-14T08:09:51.770Z,99739.72
2023-02-14T08:10:55.349Z,99737.97
2023-02-14T08:12:18.078Z,99741.66
2023-02-14T08:13:22.015Z,99746.38
2023-02-14T08:14:25.165Z,99737.47
2023-02-14T08:15:52.156Z,99742.41
2023-02-14T08:16:55.666Z,99735.88
2023-02-14T08:17:58.848Z,99742.47
2023-02-14T08:19:02.715Z,99736.81
2023-02-14T08:20:06.529Z,99740.03
2023-02-14T08:21:11.720Z,99738.75
2023-02-14T08:22:14.997Z,99736.75
2023-02-14T08:23:19.233Z,99739.69
2023-02-14T08:24:22.381Z,99736.47
2023-02-14T08:25:25.690Z,99732.53
2023-02-14T08:26:28.845Z,99729.03
2023-02-14T08:27:32.586Z,99734.91
2023-02-14T08:28:36.109Z,99730.97
2023-02-14T08:29:39.301Z,99731.19
2023-02-14T08:30:43.871Z,99732.22
2023-02-14T08:31:47.853Z,99726.22
2023-02-14T08:32:50.977Z,99730.88
2023-02-14T08:33:54.345Z,99732.09
2023-02-14T08:34:57.370Z,99734.47
2023-02-14T08:36:00.768Z,99736.94
2023-02-14T08:37:03.826Z,99731.44
2023-02-14T08:38:07.313Z,99733.13
2023-02-14T08:39:11.157Z,99732.41
2023-02-14T08:40:15.130Z,99735.13
2023-02-14T08:41:19.355Z,99731.72
2023-02-14T08:42:22.474Z,99740.31
2023-02-14T08:43:25.612Z,99731.56
2023-02-14T08:44:28.666Z,99733.75
2023-02-14T08:45:31.797Z,99732.47
2023-02-14T08:46:35.945Z,99730.69
2023-02-14T08:47:40.598Z,99728.03
2023-02-14T08:48:44.907Z,99730.78
2023-02-14T08:49:48.816Z,99731.88
2023-02-14T08:50:52.228Z,99733.87
2023-02-14T08:51:55.661Z,99735.13
2023-02-14T08:52:58.794Z,99736.34
2023-02-14T08:54:02.227Z,99731.63
2023-02-14T08:55:05.669Z,99734.34
2023-02-14T08:56:14.069Z,99728.88
2023-02-14T08:57:17.818Z,99735.03
2023-02-14T08:58:21.327Z,99733.34
2023-02-14T08:59:24.736Z,99736.16
2023-02-14T09:00:28.642Z,99733.94
2023-02-14T09:01:32.364Z,99729.22
2023-02-14T09:02:35.803Z,99732.50
2023-02-14T09:03:39.772Z,99737.22
2023-02-14T09:04:43.136Z,99738.19
2023-02-14T09:05:46.433Z,99737.62
2023-02-14T09:06:49.561Z,99732.63
2023-02-14T09:07:56.578Z,99731.03
2023-02-14T09:09:01.580Z,99730.81
2023-02-14T09:10:06.255Z,99734.56
2023-02-14T09:11:15.711Z,99731.84
2023-02-14T09:12:19.421Z,99740.69
2023-02-14T09:13:22.577Z,99730.25
2023-02-14T09:14:25.834Z,99732.81
2023-02-14T09:15:29.236Z,99733.34
2023-02-14T09:16:32.520Z,99737.34
2023-02-14T09:17:36.599Z,99739.44
2023-02-14T09:18:40.669Z,99734.97
2023-02-14T09:19:44.037Z,99731.91
2023-02-14T09:20:47.607Z,99733.91
2023-02-14T09:21:51.012Z,99734.22
2023-02-14T09:22:57.485Z,99733.13
2023-02-14T09:24:00.649Z,99740.91
2023-02-14T09:25:04.230Z,99744.66
2023-02-14T09:26:11.745Z,99742.31
2023-02-14T09:27:18.155Z,99748.22
2023-02-14T09:28:21.306Z,99738.41
2023-02-14T09:29:25.940Z,99739.91
2023-02-14T09:30:29.224Z,99744.44
2023-02-14T09:31:33.380Z,99748.63
2023-02-14T09:32:37.249Z,99740.16
2023-02-14T09:33:59.575Z,99735.22
2023-02-14T09:35:21.522Z,99745.91
2023-02-14T09:36:42.754Z,99740.50
2023-02-14T09:37:46.792Z,99741.37
2023-02-14T09:38:49.957Z,99745.81
2023-02-14T09:39:53.130Z,99755.75
2023-02-14T09:40:56.149Z,99751.75
2023-02-14T09:42:15.266Z,99747.81
2023-02-14T09:43:46.642Z,99759.97
2023-02-14T09:45:08.792Z,99759.41
2023-02-14T09:46:16.866Z,99756.72
2023-02-14T09:47:28.459Z,99757.59
2023-02-14T09:48:44.146Z,99746.66
2023-02-14T09:49:49.475Z,99751.66
2023-02-14T09:50:58.575Z,99757.44
2023-02-14T09:52:04.407Z,99762.13
2023-02-14T09:53:13.849Z,99755.19
2023-02-14T09:54:23.382Z,99755.94
2023-02-14T09:55:32.441Z,99757.06
2023-02-14T09:56:57.468Z,99759.88
2023-02-14T09:58:16.104Z,99763.63
2023-02-14T09:59:29.036Z,99756.44
2023-02-14T10:00:46.383Z,99762.16
2023-02-14T10:02:16.257Z,99758.69
2023-02-14T10:03:40.757Z,99757.69
2023-02-14T10:05:24.582Z,99753.09
2023-02-14T10:06:43.220Z,99755.34
2023-02-14T10:07:47.815Z,99745.44
2023-02-14T10:09:16.919Z,99752.34
2023-02-14T10:10:25.878Z,99748.63
2023-02-14T10:11:29.782Z,99753.81
2023-02-14T10:12:43.264Z,99754.06
2023-02-14T10:14:09.483Z,99757.34
2023-02-14T10:15:27.345Z,99756.22
2023-02-14T10:16:43.190Z,99756.09
2023-02-14T10:18:24.186Z,99758.22
2023-02-14T10:19:35.106Z,99750.25
2023-02-14T10:20:59.392Z,99748.84
2023-02-14T10:22:08.963Z,99747.97
2023-02-14T10:23:28.344Z,99751.22
2023-02-14T10:24:40.831Z,99753.50
2023-02-14T10:25:57.485Z,99754.75
2023-02-14T10:27:11.738Z,99746.56
2023-02-14T10:28:18.081Z,99746.31
2023-02-14T10:29:22.392Z,99749.28
2023-02-14T10:30:26.339Z,99744.03
2023-02-14T10:31:38.149Z,99746.25
2023-02-14T10:33:08.575Z,99746.56
2023-02-14T10:34:39.620Z,99749.06
2023-02-14T10:35:49.755Z,99739.69
2023-02-14T10:36:52.767Z,99741.44
2023-02-14T10:38:04.733Z,99737.47
2023-02-14T10:39:44.855Z,99739.97
2023-02-14T10:41:14.531Z,99747.66
2023-02-14T10:42:34.445Z,99744.19
2023-02-14T10:43:53.917Z,99744.56
2023-02-14T10:45:02.625Z,99746.78
2023-02-14T10:46:18.096Z,99748.91
2023-02-14T10:47:30.097Z,99742.84
2023-02-14T10:48:52.034Z,99744.78
2023-02-14T10:50:10.350Z,99744.03
2023-02-14T10:51:33.787Z,99741.91
2023-02-14T10:52:40.898Z,99739.44
2023-02-14T10:53:46.873Z,99740.19
2023-02-14T10:55:30.084Z,99741.91
2023-02-14T10:56:40.571Z,99731.94
2023-02-14T10:57:48.929Z,99736.06
2023-02-14T10:58:56.987Z,99739.75
2023-02-14T11:00:22.187Z,99733.22
2023-02-14T11:01:25.957Z,99726.53
2023-02-14T11:02:43.288Z,99728.59
2023-02-14T11:03:56.745Z,99729.53
2023-02-14T11:05:03.731Z,99732.22
2023-02-14T11:06:09.261Z,99733.69
2023-02-14T11:07:15.111Z,99732.22
2023-02-14T11:08:29.549Z,99734.53
2023-02-14T11:09:32.720Z,99738.28
2023-02-14T11:10:36.747Z,99729.88
2023-02-14T11:11:52.128Z,99739.56
2023-02-14T11:12:55.166Z,99739.44
2023-02-14T11:13:58.419Z,99737.13
2023-02-14T11:15:12.071Z,99739.44
2023-02-14T11:16:32.387Z,99731.75
2023-02-14T11:17:37.683Z,99726.31
2023-02-14T11:18:41.882Z,99730.53
2023-02-14T11:19:59.446Z,99730.97
2023-02-14T11:21:04.056Z,99723.06
2023-02-14T11:22:10.606Z,99722.22
2023-02-14T11:23:25.095Z,99733.94
2023-02-14T11:24:35.224Z,99719.84
2023-02-14T11:25:38.871Z,99719.66
2023-02-14T11:26:47.700Z,99715.34
2023-02-14T11:28:16.587Z,99714.91
2023-02-14T11:29:45.282Z,99715.88
2023-02-14T11:30:51.238Z,99718.19
2023-02-14T11:31:55.182Z,99728.19
2023-02-14T11:32:58.324Z,99731.47
2023-02-14T11:34:05.019Z,99729.88
2023-02-14T11:35:20.207Z,99721.88
2023-02-14T11:36:24.061Z,99719.87
2023-02-14T11:37:34.631Z,99721.75
2023-02-14T11:38:40.397Z,99719.84
2023-02-14T11:39:43.727Z,99722.69
2023-02-14T11:40:56.416Z,99721.75
2023-02-14T11:42:04.477Z,99723.75
2023-02-14T11:43:15.128Z,99725.94
2023-02-14T11:44:23.029Z,99727.22
2023-02-14T11:45:31.094Z,99718.78
2023-02-14T11:46:44.278Z,99728.03
2023-02-14T11:48:19.969Z,99716.12
2023-02-14T11:49:32.296Z,99729.06
2023-02-14T11:50:37.506Z,99721.09
2023-02-14T11:51:45.778Z,99722.03
2023-02-14T11:52:53.382Z,99719.84
2023-02-14T11:54:05.670Z,99724.78
2023-02-14T11:55:25.452Z,99723.00
2023-02-14T11:56:49.409Z,99720.03
2023-02-14T11:57:52.780Z,99715.09
2023-02-14T11:59:05.999Z,99715.84
2023-02-14T12:00:19.293Z,99717.75
2023-02-14T12:01:33.005Z,99712.72
2023-02-14T12:02:42.386Z,99718.69
2023-02-14T12:03:48.876Z,99713.66
2023-02-14T12:04:56.361Z,99720.69
2023-02-14T12:06:01.366Z,99714.47
2023-02-14T12:07:18.643Z,99711.00
2023-02-14T12:08:28.539Z,99726.37
2023-02-14T12:09:32.386Z,99716.91
2023-02-14T12:10:37.410Z,99715.12
2023-02-14T12:11:40.680Z,99722.38
2023-02-14T12:12:55.996Z,99712.37
2023-02-14T12:13:59.203Z,99721.13
2023-02-14T12:15:38.949Z,99717.03
2023-02-14T12:16:58.751Z,99716.53
2023-02-14T12:18:26.466Z,99706.22
2023-02-14T12:19:48.259Z,99709.78
2023-02-14T12:21:00.684Z,99713.56
2023-02-14T12:22:07.286Z,99716.00
2023-02-14T12:23:42.985Z,99709.34
2023-02-14T12:25:12.094Z,99707.88
2023-02-14T12:26:36.073Z,99717.03
2023-02-14T12:27:50.711Z,99717.38
2023-02-14T12:29:15.075Z,99714.00
2023-02-14T12:30:24.502Z,99707.69
2023-02-14T12:31:28.070Z,99700.97
2023-02-14T12:32:32.440Z,99700.84
2023-02-14T12:33:36.469Z,99701.97
2023-02-14T12:34:42.690Z,99701.63
2023-02-14T12:35:59.975Z,99703.72
2023-02-14T12:37:23.959Z,99697.88
2023-02-14T12:39:11.927Z,99699.03
2023-02-14T12:40:23.675Z,99691.78
2023-02-14T12:41:50.727Z,99701.16
2023-02-14T12:43:11.556Z,99693.16
2023-02-14T12:44:43.888Z,99685.56
2023-02-14T12:46:03.008Z,99681.56
2023-02-14T12:47:15.319Z,99689.47
2023-02-14T12:48:38.926Z,99678.84
2023-02-14T12:50:03.296Z,99691.34
2023-02-14T12:51:30.352Z,99684.31
2023-02-14T12:52:51.832Z,99683.38
2023-02-14T12:54:13.040Z,99680.75
2023-02-14T12:55:25.533Z,99680.50
2023-02-14T12:56:42.674Z,99677.34
2023-02-14T12:58:21.442Z,99684.31
2023-02-14T12:59:35.474Z,99678.22
2023-02-14T13:01:04.325Z,99677.34
2023-02-14T13:03:13.951Z,99671.47
2023-02-14T13:04:49.376Z,99672.41
2023-02-14T13:06:18.059Z,99671.53
2023-02-14T13:07:49.969Z,99673.44
2023-02-14T13:09:01.849Z,99674.28
2023-02-14T13:10:12.794Z,99672.28
2023-02-14T13:11:34.158Z,99667.63
2023-02-14T13:13:05.564Z,99673.09
2023-02-14T13:14:25.433Z,99666.47
2023-02-14T13:15:43.318Z,99664.47
2023-02-14T13:16:55.391Z,99666.25
2023-02-14T13:18:36.265Z,99664.25
2023-02-14T13:19:50.929Z,99667.81
2023-02-14T13:20:58.013Z,99660.16
2023-02-14T13:22:04.346Z,99661.91
2023-02-14T13:23:33.436Z,99661.09
2023-02-14T13:24:43.031Z,99658.78
2023-02-14T13:25:55.038Z,99661.62
2023-02-14T13:27:03.318Z,99663.03
2023-02-14T13:28:12.236Z,99660.19
2023-02-14T13:29:20.954Z,99662.19
2023-02-14T13:30:34.154Z,99673.97
2023-02-14T13:31:38.965Z,99671.03
2023-02-14T13:32:47.312Z,99669.59